createdAt,value
2022-12-13T00:01:47.152Z,100.00
2022-12-13T00:04:16.526Z,100.00
2022-12-13T00:06:44.368Z,100.00
2022-12-13T00:09:13.871Z,100.00
2022-12-13T00:11:41.629Z,100.00
2022-12-13T00:14:11.494Z,100.00
2022-12-13T00:16:39.291Z,100.00
2022-12-13T00:19:07.226Z,100.00
2022-12-13T00:21:36.406Z,100.00
2022-12-13T00:24:07.118Z,100.00
2022-12-13T00:26:35.243Z,100.00
2022-12-13T00:29:04.736Z,100.00
2022-12-13T00:34:20.431Z,100.00
2022-12-13T00:36:49.718Z,100.00
2022-12-13T00:39:20.301Z,100.00
2022-12-13T00:41:48.449Z,100.00
2022-12-13T00:44:16.214Z,100.00
2022-12-13T00:46:44.416Z,100.00
2022-12-13T00:49:13.672Z,100.00
2022-12-13T00:51:41.766Z,100.00
2022-12-13T00:54:11.658Z,100.00
2022-12-13T00:56:39.492Z,100.00
2022-12-13T00:59:07.354Z,100.00
2022-12-13T01:01:37.339Z,100.00
2022-12-13T01:04:06.615Z,100.00
2022-12-13T01:06:37.754Z,100.00
2022-12-13T01:09:07.860Z,100.00
2022-12-13T01:11:36.883Z,100.00
2022-12-13T01:14:05.000Z,100.00
2022-12-13T01:16:32.821Z,100.00
2022-12-13T01:19:00.608Z,100.00
2022-12-13T01:21:29.746Z,100.00
2022-12-13T01:24:04.563Z,100.00
2022-12-13T01:26:33.067Z,100.00
2022-12-13T01:29:02.343Z,100.00
2022-12-13T01:31:30.098Z,100.00
2022-12-13T01:33:58.281Z,100.00
2022-12-13T01:36:27.332Z,100.00
2022-12-13T01:38:58.473Z,100.00
2022-12-13T01:41:28.740Z,100.00
2022-12-13T01:44:03.041Z,100.00
2022-12-13T01:46:33.857Z,100.00
2022-12-13T01:49:19.725Z,100.00
2022-12-13T01:51:52.760Z,100.00
2022-12-13T01:54:23.956Z,100.00
2022-12-13T01:57:00.792Z,100.00
2022-12-13T01:59:29.224Z,100.00
2022-12-13T02:02:00.986Z,100.00
2022-12-13T02:04:32.563Z,100.00
2022-12-13T02:07:00.654Z,100.00
2022-12-13T02:09:29.860Z,100.00
2022-12-13T02:11:57.676Z,100.00
2022-12-13T02:14:25.417Z,100.00
2022-12-13T02:17:01.259Z,100.00
2022-12-13T02:20:02.571Z,100.00
2022-12-13T02:22:49.968Z,100.00
2022-12-13T02:25:35.012Z,100.00
2022-12-13T02:28:30.677Z,100.00
2022-12-13T02:31:07.785Z,100.00
2022-12-13T02:33:51.291Z,100.00
2022-12-13T02:36:26.809Z,100.00
2022-12-13T02:39:00.352Z,100.00
2022-12-13T02:41:37.105Z,100.00
2022-12-13T02:44:22.187Z,100.00
2022-12-13T02:46:56.117Z,100.00
2022-12-13T02:49:26.562Z,100.00
2022-12-13T02:51:55.354Z,100.00
2022-12-13T02:54:24.303Z,100.00
2022-12-13T02:56:55.932Z,100.00
2022-12-13T02:59:27.996Z,100.00
2022-12-13T03:02:10.342Z,100.00
2022-12-13T03:05:03.085Z,100.00
2022-12-13T03:07:39.832Z,100.00
2022-12-13T03:10:16.819Z,100.00
2022-12-13T03:13:11.592Z,100.00
2022-12-13T03:15:44.825Z,100.00
2022-12-13T03:18:16.552Z,100.00
2022-12-13T03:20:48.609Z,100.00
2022-12-13T03:23:17.979Z,100.00
2022-12-13T03:25:48.265Z,100.00
2022-12-13T03:28:16.132Z,100.00
2022-12-13T03:30:43.858Z,100.00
2022-12-13T03:33:11.717Z,100.00
2022-12-13T03:35:44.804Z,100.00
2022-12-13T03:38:21.930Z,100.00
2022-12-13T03:40:53.223Z,100.00
2022-12-13T03:43:22.458Z,100.00
2022-12-13T03:45:51.209Z,100.00
2022-12-13T03:48:22.887Z,100.00
2022-12-13T03:50:53.549Z,100.00
2022-12-13T03:53:33.498Z,100.00
2022-12-13T03:56:05.355Z,100.00
2022-12-13T03:58:37.976Z,100.00
2022-12-13T04:01:07.621Z,100.00
2022-12-13T04:03:35.585Z,100.00
2022-12-13T04:06:05.654Z,100.00
2022-12-13T04:08:33.452Z,100.00
2022-12-13T04:11:21.145Z,100.00
2022-12-13T04:13:47.968Z,100.00
2022-12-13T04:16:15.731Z,100.00
2022-12-13T04:18:43.822Z,100.00
2022-12-13T04:21:12.918Z,100.00
2022-12-13T04:23:40.636Z,100.00
2022-12-13T04:26:08.382Z,100.00
2022-12-13T04:28:36.151Z,100.00
2022-12-13T04:31:03.900Z,100.00
2022-12-13T04:33:32.602Z,100.00
2022-12-13T04:36:00.539Z,100.00
2022-12-13T04:38:29.603Z,100.00
2022-12-13T04:41:06.195Z,100.00
2022-12-13T04:43:33.892Z,100.00
2022-12-13T04:46:01.630Z,100.00
2022-12-13T04:48:30.297Z,100.00
2022-12-13T04:51:01.249Z,100.00
2022-12-13T04:53:31.001Z,100.00
2022-12-13T04:55:58.847Z,100.00
2022-12-13T04:58:26.725Z,100.00
2022-12-13T05:00:54.485Z,100.00
2022-12-13T05:03:22.364Z,100.00
2022-12-13T05:05:50.295Z,100.00
2022-12-13T05:08:18.254Z,100.00
2022-12-13T05:10:47.417Z,100.00
2022-12-13T05:13:15.145Z,100.00
2022-12-13T05:15:42.841Z,100.00
2022-12-13T05:18:11.385Z,100.00
2022-12-13T05:20:39.969Z,100.00
2022-12-13T05:23:07.836Z,100.00
2022-12-13T05:25:36.704Z,100.00
2022-12-13T05:28:08.759Z,100.00
2022-12-13T05:30:55.141Z,100.00
2022-12-13T05:33:23.202Z,100.00
2022-12-13T05:35:54.946Z,100.00
2022-12-13T05:38:25.605Z,100.00
2022-12-13T05:40:53.302Z,100.00
2022-12-13T05:43:23.841Z,100.00
2022-12-13T05:46:10.342Z,100.00
2022-12-13T05:48:39.280Z,100.00
2022-12-13T05:51:10.453Z,100.00
2022-12-13T05:53:40.499Z,100.00
2022-12-13T05:56:09.091Z,100.00
2022-12-13T05:58:39.928Z,100.00
2022-12-13T06:01:09.184Z,100.00
2022-12-13T06:03:38.442Z,100.00
2022-12-13T06:06:08.496Z,100.00
2022-12-13T06:08:36.520Z,100.00
2022-12-13T06:11:10.413Z,100.00
2022-12-13T06:13:42.540Z,100.00
2022-12-13T06:16:23.319Z,100.00
2022-12-13T06:19:01.313Z,100.00
2022-12-13T06:21:41.789Z,100.00
2022-12-13T06:24:14.706Z,100.00
2022-12-13T06:26:42.468Z,100.00
2022-12-13T06:29:24.616Z,100.00
2022-12-13T06:32:02.515Z,100.00
2022-12-13T06:34:32.824Z,100.00
2022-12-13T06:37:01.115Z,100.00
2022-12-13T06:39:32.853Z,100.00
2022-12-13T06:42:02.625Z,100.00
2022-12-13T06:44:31.769Z,100.00
2022-12-13T06:47:10.578Z,100.00
2022-12-13T06:49:41.609Z,100.00
2022-12-13T06:52:11.701Z,100.00
2022-12-13T06:54:39.727Z,100.00
2022-12-13T06:57:07.509Z,100.00
2022-12-13T06:59:36.714Z,100.00
2022-12-13T07:02:04.613Z,100.00
2022-12-13T07:04:32.581Z,100.00
2022-12-13T07:07:01.832Z,100.00
2022-12-13T07:09:30.677Z,100.00
2022-12-13T07:11:59.207Z,100.00
2022-12-13T07:14:27.310Z,100.00
2022-12-13T07:17:03.097Z,100.00
2022-12-13T07:19:34.907Z,100.00
2022-12-13T07:22:06.216Z,100.00
2022-12-13T07:24:35.213Z,100.00
2022-12-13T07:27:04.691Z,100.00
2022-12-13T07:29:32.545Z,100.00
2022-12-13T07:32:02.271Z,100.00
2022-12-13T07:34:30.829Z,100.00
2022-12-13T07:36:59.034Z,100.00
2022-12-13T07:39:27.231Z,100.00
2022-12-13T07:41:56.498Z,100.00
2022-12-13T07:44:24.393Z,100.00
2022-12-13T07:46:52.236Z,100.00
2022-12-13T07:49:21.410Z,100.00
2022-12-13T07:51:49.282Z,100.00
2022-12-13T07:54:17.596Z,100.00
2022-12-13T07:56:45.934Z,100.00
2022-12-13T07:59:14.308Z,100.00
2022-12-13T08:01:42.226Z,100.00
2022-12-13T08:04:10.144Z,100.00
2022-12-13T08:06:41.580Z,100.00
2022-12-13T08:09:09.725Z,100.00
2022-12-13T08:11:37.489Z,100.00
2022-12-13T08:14:06.216Z,100.00
2022-12-13T08:16:34.090Z,100.00
2022-12-13T08:19:04.358Z,100.00
2022-12-13T08:21:55.022Z,100.00
2022-12-13T08:24:26.169Z,100.00
2022-12-13T08:26:54.024Z,100.00
2022-12-13T08:29:33.654Z,100.00
2022-12-13T08:32:04.315Z,100.00
2022-12-13T08:34:32.576Z,100.00
2022-12-13T08:37:01.611Z,100.00
2022-12-13T08:39:34.473Z,100.00
2022-12-13T08:42:16.812Z,100.00
2022-12-13T08:44:47.265Z,100.00
2022-12-13T08:47:24.519Z,100.00
2022-12-13T08:49:54.071Z,100.00
2022-12-13T08:52:24.117Z,100.00
2022-12-13T08:54:53.231Z,100.00
2022-12-13T08:57:21.708Z,100.00
2022-12-13T08:59:49.720Z,100.00
2022-12-13T09:02:17.663Z,100.00
2022-12-13T09:04:45.845Z,100.00
2022-12-13T09:07:14.029Z,100.00
2022-12-13T09:09:41.795Z,100.00
2022-12-13T09:12:30.373Z,100.00
2022-12-13T09:15:01.630Z,100.00
2022-12-13T09:17:37.262Z,100.00
2022-12-13T09:20:10.125Z,100.00
2022-12-13T09:23:02.040Z,100.00
2022-12-13T09:25:36.693Z,100.00
2022-12-13T09:28:09.495Z,100.00
2022-12-13T09:30:38.652Z,100.00
2022-12-13T09:33:28.601Z,100.00
2022-12-13T09:35:55.069Z,100.00
2022-12-13T09:38:22.839Z,100.00
2022-12-13T09:40:59.067Z,100.00
2022-12-13T09:43:42.571Z,100.00
2022-12-13T09:46:34.898Z,100.00
2022-12-13T09:49:23.329Z,100.00
2022-12-13T09:52:11.615Z,100.00
2022-12-13T09:54:48.162Z,100.00
2022-12-13T09:57:30.977Z,100.00
2022-12-13T10:00:03.730Z,100.00
2022-12-13T10:02:34.725Z,100.00
2022-12-13T10:05:22.943Z,100.00
2022-12-13T10:07:55.809Z,100.00
2022-12-13T10:10:24.485Z,100.00
2022-12-13T10:13:00.534Z,100.00
2022-12-13T10:15:32.405Z,100.00
2022-12-13T10:18:03.708Z,100.00
2022-12-13T10:20:31.756Z,100.00
2022-12-13T10:23:31.197Z,100.00
2022-12-13T10:25:51.526Z,100.00
2022-12-13T10:28:25.871Z,100.00
2022-12-13T10:30:55.913Z,100.00
2022-12-13T10:33:26.637Z,100.00
2022-12-13T10:36:09.562Z,100.00
2022-12-13T10:38:40.776Z,100.00
2022-12-13T10:41:31.041Z,100.00
2022-12-13T10:44:17.979Z,100.00
2022-12-13T10:46:53.857Z,100.00
2022-12-13T10:49:25.102Z,100.00
2022-12-13T10:51:54.261Z,100.00
2022-12-13T10:54:28.490Z,100.00
2022-12-13T10:57:00.275Z,100.00
2022-12-13T10:59:35.650Z,100.00
2022-12-13T11:02:28.932Z,100.00
2022-12-13T11:04:59.603Z,100.00
2022-12-13T11:07:30.325Z,100.00
2022-12-13T11:10:04.999Z,100.00
2022-12-13T11:12:34.287Z,100.00
2022-12-13T11:15:06.372Z,100.00
2022-12-13T11:17:45.559Z,100.00
2022-12-13T11:20:20.768Z,100.00
2022-12-13T11:22:49.314Z,100.00
2022-12-13T11:25:22.369Z,100.00
2022-12-13T11:28:05.667Z,100.00
2022-12-13T11:31:04.929Z,100.00
2022-12-13T11:33:47.829Z,100.00
2022-12-13T11:36:28.845Z,100.00
2022-12-13T11:39:13.215Z,100.00
2022-12-13T11:41:45.964Z,100.00
2022-12-13T11:44:18.843Z,100.00
2022-12-13T11:46:52.352Z,100.00
2022-12-13T11:49:34.133Z,100.00
2022-12-13T11:52:07.025Z,100.00
2022-12-13T11:54:41.045Z,100.00
2022-12-13T11:57:21.909Z,100.00
2022-12-13T12:00:02.295Z,100.00
2022-12-13T12:02:34.630Z,100.00
2022-12-13T12:05:07.567Z,100.00
2022-12-13T12:07:58.526Z,100.00
2022-12-13T12:10:33.127Z,100.00
2022-12-13T12:13:08.391Z,100.00
2022-12-13T12:15:42.446Z,100.00
2022-12-13T12:18:15.637Z,100.00
2022-12-13T12:20:57.283Z,100.00
2022-12-13T12:23:46.221Z,100.00
2022-12-13T12:26:20.866Z,100.00
2022-12-13T12:29:12.107Z,100.00
2022-12-13T12:31:53.255Z,100.00
2022-12-13T12:34:33.772Z,100.00
2022-12-13T12:37:17.594Z,98.96
2022-12-13T12:39:56.177Z,97.83
2022-12-13T12:43:13.254Z,96.79
2022-12-13T12:45:58.011Z,98.40
2022-12-13T12:48:56.517Z,100.00
2022-12-13T12:51:36.776Z,100.00
2022-12-13T12:54:27.431Z,100.00
2022-12-13T12:57:07.563Z,100.00
2022-12-13T12:59:46.504Z,100.00
2022-12-13T13:02:22.704Z,100.00
2022-12-13T13:04:58.632Z,100.00
2022-12-13T13:07:32.308Z,100.00
2022-12-13T13:10:16.869Z,100.00
2022-12-13T13:13:11.306Z,100.00
2022-12-13T13:15:57.173Z,100.00
2022-12-13T13:18:46.735Z,100.00
2022-12-13T13:21:33.193Z,100.00
2022-12-13T13:24:16.613Z,100.00
2022-12-13T13:26:48.002Z,100.00
2022-12-13T13:29:27.785Z,100.00
2022-12-13T13:32:01.431Z,100.00
2022-12-13T13:34:31.697Z,100.00
2022-12-13T13:36:59.717Z,100.00
2022-12-13T13:39:56.861Z,100.00
2022-12-13T13:42:27.444Z,100.00
2022-12-13T13:45:20.056Z,100.00
2022-12-13T13:48:03.610Z,100.00
2022-12-13T13:51:22.573Z,100.00
2022-12-13T13:54:27.664Z,100.00
2022-12-13T13:58:07.232Z,100.00
2022-12-13T14:00:22.607Z,100.00
2022-12-13T14:03:32.853Z,100.00
2022-12-13T14:06:32.428Z,100.00
2022-12-13T14:09:52.743Z,100.00
2022-12-13T14:12:50.041Z,100.00
2022-12-13T14:15:49.561Z,100.00
2022-12-13T14:18:53.352Z,100.00
2022-12-13T14:21:29.888Z,100.00
2022-12-13T14:24:13.906Z,100.00
2022-12-13T14:26:58.329Z,100.00
2022-12-13T14:29:31.601Z,100.00
2022-12-13T14:32:01.418Z,100.00
2022-12-13T14:34:31.818Z,100.00
2022-12-13T14:37:02.004Z,100.00
2022-12-13T14:39:31.195Z,100.00
2022-12-13T14:42:01.144Z,100.00
2022-12-13T14:44:34.405Z,100.00
2022-12-13T14:47:06.210Z,100.00
2022-12-13T14:49:38.137Z,100.00
2022-12-13T14:52:12.141Z,100.00
2022-12-13T14:54:58.132Z,100.00
2022-12-13T14:57:30.371Z,100.00
2022-12-13T15:00:00.449Z,100.00
2022-12-13T15:02:32.398Z,100.00
2022-12-13T15:05:03.982Z,100.00
2022-12-13T15:07:36.397Z,100.00
2022-12-13T15:10:08.856Z,100.00
2022-12-13T15:12:37.778Z,100.00
2022-12-13T15:15:09.347Z,100.00
2022-12-13T15:17:42.268Z,100.00
2022-12-13T15:20:24.745Z,100.00
2022-12-13T15:22:59.612Z,100.00
2022-12-13T15:25:28.052Z,100.00
2022-12-13T15:27:56.589Z,100.00
2022-12-13T15:30:30.577Z,100.00
2022-12-13T15:33:08.891Z,100.00
2022-12-13T15:35:37.927Z,100.00
2022-12-13T15:38:06.055Z,100.00
2022-12-13T15:40:34.536Z,100.00
2022-12-13T15:43:02.781Z,100.00
2022-12-13T15:45:36.905Z,100.00
2022-12-13T15:48:07.218Z,100.00
2022-12-13T15:50:36.753Z,100.00
2022-12-13T15:53:07.255Z,100.00
2022-12-13T15:55:37.065Z,100.00
2022-12-13T15:58:21.607Z,100.00
2022-12-13T16:00:50.362Z,100.00
2022-12-13T16:03:23.175Z,100.00
2022-12-13T16:05:53.755Z,100.00
2022-12-13T16:08:28.470Z,100.00
2022-12-13T16:10:57.540Z,100.00
2022-12-13T16:13:27.407Z,100.00
2022-12-13T16:16:08.935Z,100.00
2022-12-13T16:18:47.090Z,100.00
2022-12-13T16:21:15.217Z,100.00
2022-12-13T16:23:48.122Z,100.00
2022-12-13T16:26:22.951Z,100.00
2022-12-13T16:28:50.906Z,100.00
2022-12-13T16:31:21.468Z,100.00
2022-12-13T16:33:50.766Z,100.00
2022-12-13T16:36:19.370Z,100.00
2022-12-13T16:38:47.275Z,100.00
2022-12-13T16:41:16.717Z,100.00
2022-12-13T16:43:54.751Z,100.00
2022-12-13T16:47:11.548Z,100.00
2022-12-13T16:49:20.578Z,100.00
2022-12-13T16:51:49.319Z,100.00
2022-12-13T16:54:18.460Z,100.00
2022-12-13T16:56:46.476Z,100.00
2022-12-13T16:59:16.048Z,100.00
2022-12-13T17:01:45.331Z,100.00
2022-12-13T17:04:20.199Z,100.00
2022-12-13T17:06:50.924Z,100.00
2022-12-13T17:09:22.434Z,100.00
2022-12-13T17:11:50.293Z,100.00
2022-12-13T17:14:18.377Z,100.00
2022-12-13T17:16:46.364Z,100.00
2022-12-13T17:19:17.300Z,100.00
2022-12-13T17:21:45.774Z,100.00
2022-12-13T17:24:15.302Z,100.00
2022-12-13T17:26:53.715Z,100.00
2022-12-13T17:29:22.170Z,100.00
2022-12-13T17:31:51.244Z,100.00
2022-12-13T17:34:19.066Z,100.00
2022-12-13T17:36:48.082Z,100.00
2022-12-13T17:39:17.425Z,100.00
2022-12-13T17:41:54.690Z,100.00
2022-12-13T17:44:24.213Z,100.00
2022-12-13T17:46:54.557Z,100.00
2022-12-13T17:49:23.550Z,100.00
2022-12-13T17:51:54.503Z,100.00
2022-12-13T17:54:25.238Z,100.00
2022-12-13T17:56:54.536Z,100.00
2022-12-13T17:59:23.087Z,100.00
2022-12-13T18:01:51.977Z,100.00
2022-12-13T18:04:20.489Z,100.00
2022-12-13T18:06:48.549Z,100.00
2022-12-13T18:09:16.529Z,100.00
2022-12-13T18:11:45.802Z,100.00
2022-12-13T18:14:13.738Z,100.00
2022-12-13T18:16:41.988Z,100.00
2022-12-13T18:19:14.156Z,100.00
2022-12-13T18:21:43.229Z,100.00
2022-12-13T18:24:11.975Z,100.00
2022-12-13T18:26:40.263Z,100.00
2022-12-13T18:29:09.805Z,100.00
2022-12-13T18:31:37.811Z,100.00
2022-12-13T18:34:06.042Z,100.00
2022-12-13T18:36:34.888Z,100.00
2022-12-13T18:39:02.919Z,100.00
2022-12-13T18:41:33.140Z,100.00
2022-12-13T18:44:02.782Z,100.00
2022-12-13T18:46:35.832Z,100.00
2022-12-13T18:49:05.841Z,100.00
2022-12-13T18:51:34.121Z,100.00
2022-12-13T18:54:02.023Z,100.00
2022-12-13T18:56:29.813Z,100.00
2022-12-13T18:58:58.302Z,100.00
2022-12-13T19:01:28.759Z,100.00
2022-12-13T19:03:58.055Z,100.00
2022-12-13T19:06:28.364Z,100.00
2022-12-13T19:08:58.101Z,100.00
2022-12-13T19:11:27.275Z,100.00
2022-12-13T19:13:55.809Z,100.00
2022-12-13T19:16:24.734Z,100.00
2022-12-13T19:18:52.569Z,100.00
2022-12-13T19:21:23.121Z,100.00
2022-12-13T19:23:57.062Z,100.00
2022-12-13T19:26:26.695Z,100.00
2022-12-13T19:28:56.629Z,100.00
2022-12-13T19:31:30.508Z,100.00
2022-12-13T19:33:59.895Z,100.00
2022-12-13T19:36:29.080Z,100.00
2022-12-13T19:38:56.943Z,100.00
2022-12-13T19:41:25.009Z,100.00
2022-12-13T19:43:54.240Z,100.00
2022-12-13T19:46:22.596Z,100.00
2022-12-13T19:48:50.433Z,100.00
2022-12-13T19:51:18.474Z,100.00
2022-12-13T19:53:47.520Z,100.00
2022-12-13T19:56:17.709Z,100.00
2022-12-13T19:58:46.927Z,100.00
2022-12-13T20:01:16.203Z,100.00
2022-12-13T20:03:46.216Z,100.00
2022-12-13T20:06:17.194Z,100.00
2022-12-13T20:08:46.989Z,100.00
2022-12-13T20:11:19.029Z,100.00
2022-12-13T20:13:47.211Z,100.00
2022-12-13T20:16:17.175Z,100.00
2022-12-13T20:18:44.888Z,100.00
2022-12-13T20:21:14.695Z,100.00
2022-12-13T20:23:49.471Z,100.00
2022-12-13T20:26:21.748Z,100.00
2022-12-13T20:28:50.437Z,100.00
2022-12-13T20:31:20.240Z,100.00
2022-12-13T20:33:48.929Z,100.00
2022-12-13T20:36:26.422Z,100.00
2022-12-13T20:38:56.437Z,100.00
2022-12-13T20:41:27.259Z,100.00
2022-12-13T20:43:57.209Z,100.00
2022-12-13T20:46:27.038Z,100.00
2022-12-13T20:48:57.487Z,100.00
2022-12-13T20:51:28.301Z,100.00
2022-12-13T20:53:58.593Z,100.00
2022-12-13T20:56:29.411Z,100.00
2022-12-13T20:58:57.365Z,100.00
2022-12-13T21:01:30.226Z,100.00
2022-12-13T21:04:01.009Z,100.00
2022-12-13T21:06:29.710Z,100.00
2022-12-13T21:09:02.324Z,99.77
2022-12-13T21:11:35.081Z,100.00
2022-12-13T21:14:09.197Z,99.79
2022-12-13T21:16:42.695Z,100.00
2022-12-13T21:19:12.608Z,100.00
2022-12-13T21:21:40.847Z,100.00
2022-12-13T21:24:10.025Z,100.00
2022-12-13T21:26:39.510Z,100.00
2022-12-13T21:29:10.783Z,100.00
2022-12-13T21:31:40.778Z,100.00
2022-12-13T21:34:09.200Z,100.00
2022-12-13T21:36:39.768Z,100.00
2022-12-13T21:39:12.698Z,100.00
2022-12-13T21:41:42.644Z,100.00
2022-12-13T21:44:11.798Z,100.00
2022-12-13T21:47:10.768Z,100.00
2022-12-13T21:49:28.855Z,100.00
2022-12-13T21:51:57.552Z,100.00
2022-12-13T21:54:25.648Z,100.00
2022-12-13T21:57:12.435Z,100.00
2022-12-13T21:59:40.661Z,100.00
2022-12-13T22:02:14.983Z,100.00
2022-12-13T22:04:45.175Z,100.00
2022-12-13T22:07:15.588Z,100.00
2022-12-13T22:09:44.135Z,100.00
2022-12-13T22:12:20.521Z,100.00
2022-12-13T22:14:48.796Z,100.00
2022-12-13T22:17:17.067Z,100.00
2022-12-13T22:19:48.293Z,100.00
2022-12-13T22:22:18.152Z,100.00
2022-12-13T22:24:53.474Z,100.00
2022-12-13T22:27:27.572Z,100.00
2022-12-13T22:29:57.645Z,100.00
2022-12-13T22:32:26.217Z,100.00
2022-12-13T22:34:54.277Z,100.00
2022-12-13T22:37:23.110Z,100.00
2022-12-13T22:39:51.153Z,100.00
2022-12-13T22:42:18.974Z,100.00
2022-12-13T22:44:48.613Z,100.00
2022-12-13T22:47:16.417Z,100.00
2022-12-13T22:49:44.420Z,100.00
2022-12-13T22:52:16.663Z,100.00
2022-12-13T22:54:44.440Z,100.00
2022-12-13T22:57:12.163Z,100.00
2022-12-13T22:59:40.034Z,100.00
2022-12-13T23:02:09.696Z,100.00
2022-12-13T23:04:39.315Z,100.00
2022-12-13T23:07:07.095Z,99.77
2022-12-13T23:09:34.765Z,98.93
2022-12-13T23:12:20.036Z,98.42
2022-12-13T23:14:47.819Z,98.31
2022-12-13T23:17:16.986Z,98.78
2022-12-13T23:19:48.768Z,99.55
2022-12-13T23:22:18.839Z,100.00
2022-12-13T23:24:46.589Z,100.00
2022-12-13T23:27:14.409Z,100.00
2022-12-13T23:29:43.503Z,100.00
2022-12-13T23:32:12.077Z,100.00
2022-12-13T23:34:41.148Z,100.00
2022-12-13T23:37:08.872Z,100.00
2022-12-13T23:39:37.862Z,100.00
2022-12-13T23:42:06.601Z,100.00
2022-12-13T23:44:34.584Z,100.00
2022-12-13T23:47:02.645Z,100.00
2022-12-13T23:49:30.363Z,100.00
2022-12-13T23:51:59.426Z,100.00
2022-12-13T23:54:27.040Z,100.00
2022-12-13T23:56:54.896Z,100.00
2022-12-13T23:59:25.664Z,100.00
